createdAt,value
2022-10-20T00:00:05.120Z,0.00
2022-10-20T00:01:05.138Z,0.00
2022-10-20T00:02:05.101Z,0.00
2022-10-20T00:03:05.126Z,0.00
2022-10-20T00:04:05.088Z,0.00
2022-10-20T00:05:05.068Z,0.00
2022-10-20T00:06:05.077Z,0.00
2022-10-20T00:07:05.071Z,0.00
2022-10-20T00:08:05.031Z,0.00
2022-10-20T00:09:05.094Z,0.00
2022-10-20T00:10:05.021Z,0.00
2022-10-20T00:11:05.039Z,0.00
2022-10-20T00:12:04.989Z,0.00
2022-10-20T00:13:04.980Z,0.00
2022-10-20T00:14:04.970Z,0.00
2022-10-20T00:15:04.960Z,0.00
2022-10-20T00:16:04.971Z,0.00
2022-10-20T00:17:04.950Z,0.00
2022-10-20T00:18:04.928Z,0.00
2022-10-20T00:19:04.920Z,0.00
2022-10-20T00:20:04.947Z,0.00
2022-10-20T00:21:04.919Z,0.00
2022-10-20T00:22:04.879Z,0.00
2022-10-20T00:23:04.877Z,0.00
2022-10-20T00:24:04.870Z,0.00
2022-10-20T00:25:04.859Z,0.00
2022-10-20T00:26:04.850Z,0.00
2022-10-20T00:27:04.860Z,0.00
2022-10-20T00:28:04.820Z,0.00
2022-10-20T00:29:04.854Z,0.00
2022-10-20T00:30:04.798Z,0.00
2022-10-20T00:31:04.791Z,0.00
2022-10-20T00:32:04.800Z,0.00
2022-10-20T00:33:04.780Z,0.00
2022-10-20T00:34:04.751Z,0.00
2022-10-20T00:35:04.750Z,0.00
2022-10-20T00:36:04.731Z,0.00
2022-10-20T00:37:04.730Z,0.00
2022-10-20T00:38:04.738Z,0.00
2022-10-20T00:39:04.702Z,0.00
2022-10-20T00:40:04.690Z,0.00
2022-10-20T00:41:04.685Z,0.00
2022-10-20T00:42:04.690Z,0.00
2022-10-20T00:43:04.683Z,0.00
2022-10-20T00:44:04.643Z,0.00
2022-10-20T00:45:04.639Z,0.00
2022-10-20T00:46:04.624Z,0.00
2022-10-20T00:47:04.640Z,0.00
2022-10-20T00:48:04.611Z,0.00
2022-10-20T00:49:04.590Z,0.00
2022-10-20T00:50:04.582Z,0.00
2022-10-20T00:51:04.570Z,0.00
2022-10-20T00:52:04.571Z,0.00
2022-10-20T00:53:04.569Z,0.00
2022-10-20T00:54:04.535Z,0.00
2022-10-20T00:55:04.531Z,0.00
2022-10-20T00:56:04.525Z,0.00
2022-10-20T00:57:04.507Z,0.00
2022-10-20T00:58:04.520Z,0.00
2022-10-20T00:59:04.500Z,0.00
2022-10-20T01:00:04.470Z,0.00
2022-10-20T01:01:04.461Z,0.00
2022-10-20T01:02:04.499Z,0.00
2022-10-20T01:03:04.441Z,0.00
2022-10-20T01:04:04.450Z,0.00
2022-10-20T01:05:04.420Z,0.00
2022-10-20T01:06:04.433Z,0.00
2022-10-20T01:07:04.403Z,0.00
2022-10-20T01:08:04.383Z,0.00
2022-10-20T01:09:04.566Z,0.00
2022-10-20T01:10:04.362Z,0.00
2022-10-20T01:11:04.366Z,0.00
2022-10-20T01:12:04.341Z,0.00
2022-10-20T01:13:04.332Z,0.00
2022-10-20T01:14:04.342Z,0.00
2022-10-20T01:15:04.310Z,0.00
2022-10-20T01:16:04.295Z,0.00
2022-10-20T01:17:04.293Z,0.00
2022-10-20T01:18:04.273Z,0.00
2022-10-20T01:19:04.293Z,0.00
2022-10-20T01:20:04.252Z,0.00
2022-10-20T01:21:04.244Z,0.00
2022-10-20T01:22:04.234Z,0.00
2022-10-20T01:23:04.223Z,0.00
2022-10-20T01:24:04.241Z,0.00
2022-10-20T01:25:04.202Z,0.00
2022-10-20T01:26:04.192Z,0.00
2022-10-20T01:27:04.184Z,0.00
2022-10-20T01:28:04.164Z,0.00
2022-10-20T01:29:04.183Z,0.00
2022-10-20T01:30:04.147Z,0.00
2022-10-20T01:31:04.136Z,0.00
2022-10-20T01:32:04.129Z,0.00
2022-10-20T01:33:04.114Z,0.00
2022-10-20T01:34:04.123Z,0.00
2022-10-20T01:35:04.094Z,0.00
2022-10-20T01:36:04.084Z,0.00
2022-10-20T01:37:04.073Z,0.00
2022-10-20T01:38:04.062Z,0.00
2022-10-20T01:39:04.075Z,0.00
2022-10-20T01:40:04.041Z,0.00
2022-10-20T01:41:04.024Z,0.00
2022-10-20T01:42:04.016Z,0.00
2022-10-20T01:43:04.015Z,0.00
2022-10-20T01:44:04.023Z,0.00
2022-10-20T01:45:04.013Z,0.00
2022-10-20T01:46:03.973Z,0.00
2022-10-20T01:47:03.964Z,0.00
2022-10-20T01:48:03.953Z,0.00
2022-10-20T01:49:03.943Z,0.00
2022-10-20T01:50:03.953Z,0.00
2022-10-20T01:51:03.921Z,0.00
2022-10-20T01:52:03.913Z,0.00
2022-10-20T01:53:03.900Z,0.00
2022-10-20T01:54:03.916Z,0.00
2022-10-20T01:55:03.884Z,0.00
2022-10-20T01:56:03.881Z,0.00
2022-10-20T01:57:03.863Z,0.00
2022-10-20T01:58:03.862Z,0.00
2022-10-20T01:59:03.872Z,0.00
2022-10-20T02:00:03.835Z,0.00
2022-10-20T02:01:03.838Z,0.00
2022-10-20T02:02:03.806Z,0.00
2022-10-20T02:03:03.795Z,0.00
2022-10-20T02:04:03.815Z,0.00
2022-10-20T02:05:03.763Z,0.00
2022-10-20T02:06:03.784Z,0.00
2022-10-20T02:07:03.755Z,0.00
2022-10-20T02:08:03.736Z,0.00
2022-10-20T02:09:03.813Z,0.00
2022-10-20T02:10:03.716Z,0.00
2022-10-20T02:11:03.707Z,0.00
2022-10-20T02:12:03.702Z,0.00
2022-10-20T02:13:03.686Z,0.00
2022-10-20T02:14:03.676Z,0.00
2022-10-20T02:15:03.693Z,0.00
2022-10-20T02:16:03.654Z,0.00
2022-10-20T02:17:03.646Z,0.00
2022-10-20T02:18:03.635Z,0.00
2022-10-20T02:19:03.639Z,0.00
2022-10-20T02:20:03.615Z,0.00
2022-10-20T02:21:03.595Z,0.00
2022-10-20T02:22:03.593Z,0.00
2022-10-20T02:23:03.575Z,0.00
2022-10-20T02:24:03.588Z,0.00
2022-10-20T02:25:03.555Z,0.00
2022-10-20T02:26:03.549Z,0.00
2022-10-20T02:27:03.529Z,0.00
2022-10-20T02:28:03.529Z,0.00
2022-10-20T02:29:03.543Z,0.00
2022-10-20T02:30:03.496Z,0.00
2022-10-20T02:31:03.486Z,0.00
2022-10-20T02:32:03.488Z,0.00
2022-10-20T02:33:03.476Z,0.00
2022-10-20T02:34:03.457Z,0.00
2022-10-20T02:35:06.539Z,0.00
2022-10-20T02:36:03.437Z,0.00
2022-10-20T02:37:03.472Z,0.00
2022-10-20T02:38:03.419Z,0.00
2022-10-20T02:39:03.408Z,0.00
2022-10-20T02:40:03.418Z,0.00
2022-10-20T02:41:03.385Z,0.00
2022-10-20T02:42:03.377Z,0.00
2022-10-20T02:43:03.355Z,0.00
2022-10-20T02:44:03.355Z,0.00
2022-10-20T02:45:03.337Z,0.00
2022-10-20T02:46:03.445Z,0.00
2022-10-20T02:47:03.316Z,0.00
2022-10-20T02:48:05.161Z,0.00
2022-10-20T02:49:03.288Z,0.00
2022-10-20T02:50:03.309Z,0.00
2022-10-20T02:51:03.298Z,0.00
2022-10-20T02:52:03.267Z,0.00
2022-10-20T02:53:03.258Z,0.00
2022-10-20T02:54:03.246Z,0.00
2022-10-20T02:55:03.226Z,0.00
2022-10-20T02:56:03.248Z,0.00
2022-10-20T02:57:03.215Z,0.00
2022-10-20T02:58:03.201Z,0.00
2022-10-20T02:59:03.185Z,0.00
2022-10-20T03:00:03.192Z,0.00
2022-10-20T03:01:03.187Z,0.00
2022-10-20T03:02:03.258Z,0.00
2022-10-20T03:03:03.139Z,0.00
2022-10-20T03:04:03.129Z,0.00
2022-10-20T03:05:03.119Z,0.00
2022-10-20T03:06:03.138Z,0.00
2022-10-20T03:07:03.119Z,0.00
2022-10-20T03:08:03.087Z,0.00
2022-10-20T03:09:03.127Z,0.00
2022-10-20T03:10:03.068Z,0.00
2022-10-20T03:11:03.077Z,0.00
2022-10-20T03:12:03.048Z,0.00
2022-10-20T03:13:03.038Z,0.00
2022-10-20T03:14:03.018Z,0.00
2022-10-20T03:15:03.017Z,0.00
2022-10-20T03:16:03.032Z,0.00
2022-10-20T03:17:02.989Z,0.00
2022-10-20T03:18:02.986Z,0.00
2022-10-20T03:19:05.311Z,0.00
2022-10-20T03:20:02.959Z,0.00
2022-10-20T03:21:02.949Z,0.00
2022-10-20T03:22:02.959Z,0.00
2022-10-20T03:23:02.928Z,0.00
2022-10-20T03:24:02.910Z,0.00
2022-10-20T03:25:02.909Z,0.00
2022-10-20T03:26:02.890Z,0.00
2022-10-20T03:27:02.887Z,0.00
2022-10-20T03:28:02.890Z,0.00
2022-10-20T03:29:02.866Z,0.00
2022-10-20T03:30:02.860Z,0.00
2022-10-20T03:31:02.838Z,0.00
2022-10-20T03:32:02.819Z,0.00
2022-10-20T03:33:02.842Z,0.00
2022-10-20T03:34:02.801Z,0.00
2022-10-20T03:35:02.800Z,0.00
2022-10-20T03:36:02.782Z,0.00
2022-10-20T03:37:02.770Z,0.00
2022-10-20T03:38:02.780Z,0.00
2022-10-20T03:39:02.758Z,0.00
2022-10-20T03:40:02.738Z,0.00
2022-10-20T03:41:02.778Z,0.00
2022-10-20T03:42:02.710Z,0.00
2022-10-20T03:43:02.740Z,0.00
2022-10-20T03:44:02.699Z,0.00
2022-10-20T03:45:02.690Z,0.00
2022-10-20T03:46:02.680Z,0.00
2022-10-20T03:47:02.662Z,0.00
2022-10-20T03:48:02.679Z,0.00
2022-10-20T03:49:02.639Z,0.00
2022-10-20T03:50:02.688Z,0.00
2022-10-20T03:51:02.628Z,0.00
2022-10-20T03:52:02.609Z,0.00
2022-10-20T03:53:02.609Z,0.00
2022-10-20T03:54:02.618Z,0.00
2022-10-20T03:55:02.584Z,0.00
2022-10-20T03:56:02.560Z,0.00
2022-10-20T03:57:06.799Z,0.00
2022-10-20T03:58:03.541Z,0.00
2022-10-20T04:00:02.540Z,0.00
2022-10-20T04:01:02.521Z,0.00
2022-10-20T04:02:02.577Z,0.00
2022-10-20T04:03:02.491Z,0.00
2022-10-20T04:04:02.481Z,0.00
2022-10-20T04:05:02.490Z,0.00
2022-10-20T04:06:02.450Z,0.00
2022-10-20T04:07:02.442Z,0.00
2022-10-20T04:08:02.434Z,0.00
2022-10-20T04:09:02.500Z,0.00
2022-10-20T04:10:02.462Z,0.00
2022-10-20T04:11:02.402Z,0.00
2022-10-20T04:12:02.392Z,0.00
2022-10-20T04:13:02.381Z,0.00
2022-10-20T04:14:02.370Z,0.00
2022-10-20T04:15:02.378Z,0.00
2022-10-20T04:16:02.355Z,0.00
2022-10-20T04:17:02.330Z,0.00
2022-10-20T04:18:02.321Z,0.00
2022-10-20T04:19:02.318Z,0.00
2022-10-20T04:20:02.321Z,0.00
2022-10-20T04:21:02.291Z,0.00
2022-10-20T04:22:02.283Z,0.00
2022-10-20T04:23:02.333Z,0.00
2022-10-20T04:24:02.324Z,0.00
2022-10-20T04:25:02.347Z,0.00
2022-10-20T04:26:02.323Z,0.00
2022-10-20T04:27:02.332Z,0.00
2022-10-20T04:28:02.393Z,0.00
2022-10-20T04:29:02.233Z,0.00
2022-10-20T04:30:02.266Z,0.00
2022-10-20T04:31:02.202Z,0.00
2022-10-20T04:32:02.162Z,0.00
2022-10-20T04:33:02.163Z,0.00
2022-10-20T04:34:02.151Z,0.00
2022-10-20T04:35:02.149Z,0.00
2022-10-20T04:36:02.165Z,0.00
2022-10-20T04:37:02.141Z,0.00
2022-10-20T04:38:02.101Z,0.00
2022-10-20T04:39:02.093Z,0.00
2022-10-20T04:40:02.082Z,0.00
2022-10-20T04:41:04.094Z,0.00
2022-10-20T04:42:02.083Z,0.00
2022-10-20T04:43:02.053Z,0.00
2022-10-20T04:44:02.042Z,0.00
2022-10-20T04:45:02.251Z,0.00
2022-10-20T04:46:05.296Z,0.00
2022-10-20T04:47:03.333Z,0.00
2022-10-20T04:48:02.215Z,0.00
2022-10-20T04:49:02.214Z,0.00
2022-10-20T04:50:02.288Z,0.00
2022-10-20T04:51:02.113Z,0.00
2022-10-20T04:52:01.971Z,0.00
2022-10-20T04:53:01.965Z,0.00
2022-10-20T04:54:02.051Z,0.00
2022-10-20T04:55:01.914Z,0.00
2022-10-20T04:56:01.913Z,0.00
2022-10-20T04:57:01.926Z,0.00
2022-10-20T04:58:01.892Z,0.00
2022-10-20T04:59:01.890Z,0.00
2022-10-20T05:00:01.886Z,0.00
2022-10-20T05:01:01.854Z,0.00
2022-10-20T05:02:01.891Z,0.00
2022-10-20T05:03:01.870Z,0.00
2022-10-20T05:04:01.833Z,0.00
2022-10-20T05:05:01.821Z,0.00
2022-10-20T05:06:01.825Z,0.00
2022-10-20T05:07:01.794Z,0.00
2022-10-20T05:08:01.784Z,0.00
2022-10-20T05:09:01.875Z,0.00
2022-10-20T05:10:01.752Z,0.00
2022-10-20T05:11:01.749Z,0.00
2022-10-20T05:12:01.817Z,0.00
2022-10-20T05:13:01.724Z,0.00
2022-10-20T05:14:01.722Z,0.00
2022-10-20T05:15:01.702Z,0.00
2022-10-20T05:16:01.684Z,0.00
2022-10-20T05:17:03.237Z,0.00
2022-10-20T05:18:01.666Z,0.00
2022-10-20T05:19:01.662Z,0.00
2022-10-20T05:20:01.642Z,0.00
2022-10-20T05:21:08.759Z,0.00
2022-10-20T05:22:02.647Z,0.00
2022-10-20T05:23:01.613Z,0.00
2022-10-20T05:24:01.596Z,0.00
2022-10-20T05:25:24.455Z,0.00
2022-10-20T05:26:02.601Z,0.00
2022-10-20T05:27:01.595Z,0.00
2022-10-20T05:28:01.593Z,0.00
2022-10-20T05:29:01.556Z,0.00
2022-10-20T05:30:01.576Z,0.00
2022-10-20T05:31:01.796Z,4.00
2022-10-20T05:32:01.536Z,4.00
2022-10-20T05:33:01.582Z,0.00
2022-10-20T05:34:01.493Z,0.00
2022-10-20T05:35:01.546Z,4.00
2022-10-20T05:36:01.487Z,0.00
2022-10-20T05:37:01.484Z,4.00
2022-10-20T05:38:01.443Z,4.00
2022-10-20T05:39:01.452Z,8.00
2022-10-20T05:40:01.457Z,4.00
2022-10-20T05:41:01.422Z,8.00
2022-10-20T05:42:01.425Z,8.00
2022-10-20T05:43:01.395Z,12.00
2022-10-20T05:44:01.394Z,12.00
2022-10-20T05:45:01.382Z,20.00
2022-10-20T05:46:01.356Z,20.00
2022-10-20T05:47:01.374Z,24.00
2022-10-20T05:48:01.335Z,32.00
2022-10-20T05:49:01.335Z,36.00
2022-10-20T05:50:01.323Z,44.00
2022-10-20T05:51:01.314Z,52.00
2022-10-20T05:52:01.460Z,56.00
2022-10-20T05:53:01.294Z,60.00
2022-10-20T05:54:01.286Z,68.00
2022-10-20T05:55:01.265Z,72.00
2022-10-20T05:56:01.255Z,80.00
2022-10-20T05:57:01.575Z,84.00
2022-10-20T05:58:01.266Z,96.00
2022-10-20T05:59:01.223Z,100.00
2022-10-20T06:00:01.251Z,112.00
2022-10-20T06:01:01.198Z,120.00
2022-10-20T06:02:01.207Z,132.00
2022-10-20T06:03:01.185Z,136.00
2022-10-20T06:04:01.165Z,144.00
2022-10-20T06:05:01.215Z,156.00
2022-10-20T06:06:01.143Z,168.00
2022-10-20T06:07:01.166Z,180.00
2022-10-20T06:08:01.121Z,196.00
2022-10-20T06:09:01.157Z,208.00
2022-10-20T06:10:01.108Z,228.00
2022-10-20T06:11:01.091Z,244.00
2022-10-20T06:12:01.135Z,264.00
2022-10-20T06:13:01.086Z,284.00
2022-10-20T06:14:01.058Z,308.00
2022-10-20T06:15:01.046Z,332.00
2022-10-20T06:16:01.035Z,356.00
2022-10-20T06:17:01.028Z,380.00
2022-10-20T06:18:01.043Z,408.00
2022-10-20T06:19:00.997Z,432.00
2022-10-20T06:20:01.003Z,460.00
2022-10-20T06:21:00.977Z,484.00
2022-10-20T06:22:03.994Z,508.00
2022-10-20T06:23:01.979Z,536.00
2022-10-20T06:24:00.947Z,572.00
2022-10-20T06:25:00.974Z,608.00
2022-10-20T06:26:03.830Z,644.00
2022-10-20T06:27:01.016Z,672.00
2022-10-20T06:28:00.925Z,708.00
2022-10-20T06:29:04.446Z,740.00
2022-10-20T06:30:00.886Z,780.00
2022-10-20T06:31:00.876Z,820.00
2022-10-20T06:32:00.921Z,864.00
2022-10-20T06:33:00.919Z,908.00
2022-10-20T06:34:00.839Z,952.00
2022-10-20T06:35:00.827Z,984.00
2022-10-20T06:36:00.829Z,1020.00
2022-10-20T06:37:00.810Z,1048.00
2022-10-20T06:38:00.815Z,1076.00
2022-10-20T06:39:00.806Z,1104.00
2022-10-20T06:40:00.777Z,1140.00
2022-10-20T06:41:00.769Z,1164.00
2022-10-20T06:42:00.748Z,1180.00
2022-10-20T06:43:00.740Z,1180.00
2022-10-20T06:44:00.730Z,1180.00
2022-10-20T06:45:00.748Z,1184.00
2022-10-20T06:46:00.714Z,1196.00
2022-10-20T06:47:00.702Z,1228.00
2022-10-20T06:48:00.717Z,1272.00
2022-10-20T06:49:00.683Z,1332.00
2022-10-20T06:50:00.697Z,1396.00
2022-10-20T06:51:00.662Z,1468.00
2022-10-20T06:52:00.697Z,1532.00
2022-10-20T06:53:00.646Z,1612.00
2022-10-20T06:54:00.628Z,1700.00
2022-10-20T06:55:00.637Z,1796.00
2022-10-20T06:56:00.616Z,1900.00
2022-10-20T06:57:00.597Z,1996.00
2022-10-20T06:58:00.586Z,2076.00
2022-10-20T06:59:00.577Z,2128.00
2022-10-20T07:00:00.588Z,2152.00
2022-10-20T07:01:00.551Z,2168.00
2022-10-20T07:02:00.615Z,2188.00
2022-10-20T07:03:00.531Z,2212.00
2022-10-20T07:04:00.520Z,2244.00
2022-10-20T07:05:00.529Z,2280.00
2022-10-20T07:06:00.508Z,2296.00
2022-10-20T07:07:00.510Z,2312.00
2022-10-20T07:08:00.481Z,2344.00
2022-10-20T07:09:00.513Z,2368.00
2022-10-20T07:10:00.478Z,2384.00
2022-10-20T07:11:00.449Z,2408.00
2022-10-20T07:12:00.439Z,2432.00
2022-10-20T07:13:00.447Z,2476.00
2022-10-20T07:14:00.417Z,2536.00
2022-10-20T07:15:00.428Z,2600.00
2022-10-20T07:16:00.392Z,2676.00
2022-10-20T07:17:00.401Z,2764.00
2022-10-20T07:18:00.370Z,2852.00
2022-10-20T07:19:00.358Z,2928.00
2022-10-20T07:20:00.379Z,2996.00
2022-10-20T07:21:00.339Z,3072.00
2022-10-20T07:22:00.330Z,3144.00
2022-10-20T07:23:00.318Z,3216.00
2022-10-20T07:24:00.310Z,3296.00
2022-10-20T07:25:00.311Z,3380.00
2022-10-20T07:26:00.291Z,3480.00
2022-10-20T07:27:00.280Z,3564.00
2022-10-20T07:28:00.267Z,3624.00
2022-10-20T07:29:00.249Z,3660.00
2022-10-20T07:30:00.260Z,3696.00
2022-10-20T07:31:00.232Z,3724.00
2022-10-20T07:32:02.022Z,3744.00
2022-10-20T07:33:00.210Z,3756.00
2022-10-20T07:34:13.273Z,3784.00
2022-10-20T07:35:01.210Z,3832.00
2022-10-20T07:36:00.182Z,3904.00
2022-10-20T07:37:00.180Z,3992.00
2022-10-20T07:38:00.160Z,4080.00
2022-10-20T07:39:00.151Z,4152.00
2022-10-20T07:40:00.162Z,4208.00
2022-10-20T07:41:01.477Z,4252.00
2022-10-20T07:42:00.121Z,4300.00
2022-10-20T07:43:00.110Z,4352.00
2022-10-20T07:44:00.096Z,4404.00
2022-10-20T07:45:00.087Z,4444.00
2022-10-20T07:46:00.113Z,4480.00
2022-10-20T07:47:00.063Z,4488.00
2022-10-20T07:48:00.070Z,4500.00
2022-10-20T07:49:23.899Z,4504.00
2022-10-20T07:50:01.034Z,4524.00
2022-10-20T07:51:00.023Z,4544.00
2022-10-20T07:52:00.042Z,4564.00
2022-10-20T07:52:59.992Z,4592.00
2022-10-20T07:54:00.746Z,4612.00
2022-10-20T07:55:12.385Z,4616.00
2022-10-20T07:56:00.960Z,4616.00
2022-10-20T07:56:59.964Z,4620.00
2022-10-20T07:57:59.973Z,4628.00
2022-10-20T07:58:59.923Z,4640.00
2022-10-20T07:59:59.935Z,4672.00
2022-10-20T08:00:59.904Z,4724.00
2022-10-20T08:02:00.393Z,4788.00
2022-10-20T08:02:59.881Z,4856.00
2022-10-20T08:03:59.875Z,4936.00
2022-10-20T08:04:59.883Z,5028.00
2022-10-20T08:05:59.851Z,5124.00
2022-10-20T08:06:59.834Z,5212.00
2022-10-20T08:07:59.846Z,5280.00
2022-10-20T08:08:59.915Z,5332.00
2022-10-20T08:09:59.827Z,5384.00
2022-10-20T08:10:59.794Z,5444.00
2022-10-20T08:11:59.783Z,5508.00
2022-10-20T08:12:59.791Z,5556.00
2022-10-20T08:13:59.761Z,5596.00
2022-10-20T08:14:59.756Z,5612.00
2022-10-20T08:16:03.837Z,5604.00
2022-10-20T08:17:01.557Z,5576.00
2022-10-20T08:17:59.714Z,5572.00
2022-10-20T08:19:00.705Z,5580.00
2022-10-20T08:20:02.838Z,5592.00
2022-10-20T08:20:59.676Z,5616.00
2022-10-20T08:21:59.676Z,5648.00
2022-10-20T08:22:59.658Z,5688.00
2022-10-20T08:23:59.660Z,5756.00
2022-10-20T08:24:59.657Z,5848.00
2022-10-20T08:25:59.632Z,5960.00
2022-10-20T08:26:59.637Z,6056.00
2022-10-20T08:27:59.670Z,6160.00
2022-10-20T08:28:59.595Z,6248.00
2022-10-20T08:30:06.282Z,6352.00
2022-10-20T08:31:00.588Z,6452.00
2022-10-20T08:31:59.566Z,6528.00
2022-10-20T08:32:59.605Z,6560.00
2022-10-20T08:33:59.538Z,6596.00
2022-10-20T08:34:59.787Z,6608.00
2022-10-20T08:35:59.525Z,6628.00
2022-10-20T08:36:59.507Z,6688.00
2022-10-20T08:37:59.499Z,6768.00
2022-10-20T08:39:03.459Z,6800.00
2022-10-20T08:40:00.501Z,6796.00
2022-10-20T08:40:59.469Z,6792.00
2022-10-20T08:42:14.712Z,6784.00
2022-10-20T08:43:00.439Z,6760.00
2022-10-20T08:43:59.435Z,6696.00
2022-10-20T08:44:59.428Z,6616.00
2022-10-20T08:45:59.449Z,6580.00
2022-10-20T08:46:59.403Z,6584.00
2022-10-20T08:47:59.396Z,6668.00
2022-10-20T08:48:59.379Z,6828.00
2022-10-20T08:49:59.371Z,7016.00
2022-10-20T08:50:59.360Z,7204.00
2022-10-20T08:51:59.369Z,7376.00
2022-10-20T08:52:59.360Z,7532.00
2022-10-20T08:53:59.327Z,7644.00
2022-10-20T08:54:59.331Z,7836.00
2022-10-20T08:55:59.321Z,7956.00
2022-10-20T08:56:59.298Z,7940.00
2022-10-20T08:57:59.301Z,7980.00
2022-10-20T08:58:59.269Z,8116.00
2022-10-20T08:59:59.270Z,8352.00
2022-10-20T09:00:59.249Z,8512.00
2022-10-20T09:01:59.370Z,8408.00
2022-10-20T09:02:59.242Z,8252.00
2022-10-20T09:03:59.226Z,8316.00
2022-10-20T09:04:59.200Z,7916.00
2022-10-20T09:05:59.195Z,7644.00
2022-10-20T09:06:59.183Z,7452.00
2022-10-20T09:07:59.210Z,7416.00
2022-10-20T09:08:59.193Z,7512.00
2022-10-20T09:09:59.156Z,7492.00
2022-10-20T09:10:59.140Z,7320.00
2022-10-20T09:11:59.132Z,7236.00
2022-10-20T09:12:59.121Z,7484.00
2022-10-20T09:13:59.132Z,7816.00
2022-10-20T09:14:59.099Z,7896.00
2022-10-20T09:15:59.084Z,8232.00
2022-10-20T09:17:00.521Z,8212.00
2022-10-20T09:17:59.062Z,8352.00
2022-10-20T09:18:59.053Z,7976.00
2022-10-20T09:19:59.061Z,7900.00
2022-10-20T09:20:59.024Z,8136.00
2022-10-20T09:21:59.022Z,8716.00
2022-10-20T09:23:01.409Z,9184.00
2022-10-20T09:24:00.011Z,9460.00
2022-10-20T09:24:59.003Z,9596.00
2022-10-20T09:25:58.977Z,9836.00
2022-10-20T09:27:00.116Z,9992.00
2022-10-20T09:27:58.983Z,10012.00
2022-10-20T09:29:12.577Z,9892.00
2022-10-20T09:29:59.957Z,9800.00
2022-10-20T09:30:58.916Z,9696.00
2022-10-20T09:32:01.416Z,9708.00
2022-10-20T09:33:00.100Z,9688.00
2022-10-20T09:33:58.887Z,9572.00
2022-10-20T09:34:58.894Z,9516.00
2022-10-20T09:35:58.867Z,9568.00
2022-10-20T09:36:58.847Z,9640.00
2022-10-20T09:37:58.847Z,9712.00
2022-10-20T09:38:58.826Z,9884.00
2022-10-20T09:39:58.844Z,10124.00
2022-10-20T09:40:58.805Z,10412.00
2022-10-20T09:41:58.873Z,10628.00
2022-10-20T09:42:58.787Z,10640.00
2022-10-20T09:43:58.780Z,10548.00
2022-10-20T09:44:58.768Z,11000.00
2022-10-20T09:45:58.757Z,10212.00
2022-10-20T09:46:58.767Z,10016.00
2022-10-20T09:47:58.735Z,11112.00
2022-10-20T09:48:58.716Z,10964.00
2022-10-20T09:50:01.176Z,11024.00
2022-10-20T09:50:58.752Z,13392.00
2022-10-20T09:51:58.712Z,16000.00
2022-10-20T09:52:58.690Z,16288.00
2022-10-20T09:53:58.673Z,16352.00
2022-10-20T09:54:58.648Z,14108.00
2022-10-20T09:55:58.640Z,14460.00
2022-10-20T09:56:58.662Z,16320.00
2022-10-20T09:57:58.619Z,13264.00
2022-10-20T09:58:58.611Z,13552.00
2022-10-20T10:00:04.522Z,12296.00
2022-10-20T10:00:59.621Z,11892.00
2022-10-20T10:01:58.581Z,11460.00
2022-10-20T10:02:58.591Z,10776.00
2022-10-20T10:03:58.560Z,10752.00
2022-10-20T10:04:58.541Z,10948.00
2022-10-20T10:05:58.531Z,10880.00
2022-10-20T10:06:58.523Z,11176.00
2022-10-20T10:07:58.510Z,11708.00
2022-10-20T10:08:58.585Z,12164.00
2022-10-20T10:10:00.350Z,12516.00
2022-10-20T10:10:58.480Z,12708.00
2022-10-20T10:11:58.473Z,12656.00
2022-10-20T10:12:58.481Z,12424.00
2022-10-20T10:13:58.474Z,11960.00
2022-10-20T10:14:58.432Z,12204.00
2022-10-20T10:15:58.423Z,12384.00
2022-10-20T10:16:58.413Z,12984.00
2022-10-20T10:17:58.403Z,13540.00
2022-10-20T10:18:58.392Z,15196.00
2022-10-20T10:19:58.404Z,16000.00
2022-10-20T10:20:58.393Z,14352.00
2022-10-20T10:21:58.354Z,12084.00
2022-10-20T10:22:58.346Z,10724.00
2022-10-20T10:23:58.336Z,10004.00
2022-10-20T10:24:58.326Z,9520.00
2022-10-20T10:26:02.056Z,9232.00
2022-10-20T10:26:59.326Z,9352.00
2022-10-20T10:27:58.286Z,9988.00
2022-10-20T10:28:58.377Z,10960.00
2022-10-20T10:29:58.266Z,10964.00
2022-10-20T10:30:58.265Z,11280.00
2022-10-20T10:31:58.267Z,11320.00
2022-10-20T10:32:58.263Z,11208.00
2022-10-20T10:33:58.226Z,10860.00
2022-10-20T10:34:58.226Z,10572.00
2022-10-20T10:35:58.236Z,10220.00
2022-10-20T10:36:58.303Z,9984.00
2022-10-20T10:37:58.358Z,9672.00
2022-10-20T10:38:58.334Z,9496.00
2022-10-20T10:39:58.303Z,9372.00
2022-10-20T10:40:58.359Z,9256.00
2022-10-20T10:42:58.217Z,8896.00
2022-10-20T10:43:58.166Z,8580.00
2022-10-20T10:44:58.167Z,8364.00
2022-10-20T10:45:58.168Z,8184.00
2022-10-20T10:46:58.193Z,8064.00
2022-10-20T10:47:58.086Z,7972.00
2022-10-20T10:48:58.063Z,7860.00
2022-10-20T10:49:58.050Z,7796.00
2022-10-20T10:50:58.119Z,7740.00
2022-10-20T10:51:58.050Z,7576.00
2022-10-20T10:52:58.020Z,7368.00
2022-10-20T10:53:58.098Z,7136.00
2022-10-20T10:54:58.001Z,6920.00
2022-10-20T10:55:58.099Z,6764.00
2022-10-20T10:56:58.058Z,6612.00
2022-10-20T10:57:57.993Z,6308.00
2022-10-20T10:58:57.955Z,5856.00
2022-10-20T10:59:57.939Z,5440.00
2022-10-20T11:00:57.978Z,5088.00
2022-10-20T11:01:57.921Z,4836.00
2022-10-20T11:02:58.091Z,4824.00
2022-10-20T11:03:58.157Z,5052.00
2022-10-20T11:04:57.884Z,5548.00
2022-10-20T11:05:57.872Z,6440.00
2022-10-20T11:06:58.268Z,6884.00
2022-10-20T11:07:57.883Z,7648.00
2022-10-20T11:08:57.962Z,8540.00
2022-10-20T11:09:57.832Z,9232.00
2022-10-20T11:10:57.827Z,9612.00
2022-10-20T11:11:57.812Z,9924.00
2022-10-20T11:12:57.824Z,10008.00
2022-10-20T11:13:57.805Z,9784.00
2022-10-20T11:14:57.775Z,9288.00
2022-10-20T11:15:57.763Z,8656.00
2022-10-20T11:16:57.754Z,8068.00
2022-10-20T11:17:57.765Z,7636.00
2022-10-20T11:18:57.757Z,7432.00
2022-10-20T11:19:57.727Z,7552.00
2022-10-20T11:20:57.715Z,7756.00
2022-10-20T11:21:57.705Z,8004.00
2022-10-20T11:22:57.716Z,8252.00
2022-10-20T11:23:57.706Z,8440.00
2022-10-20T11:24:57.667Z,8524.00
2022-10-20T11:25:57.658Z,8540.00
2022-10-20T11:26:57.646Z,8468.00
2022-10-20T11:27:57.639Z,8324.00
2022-10-20T11:28:57.627Z,8160.00
2022-10-20T11:29:57.684Z,7952.00
2022-10-20T11:30:57.644Z,7728.00
2022-10-20T11:31:57.589Z,7480.00
2022-10-20T11:32:57.578Z,7200.00
2022-10-20T11:33:57.569Z,6892.00
2022-10-20T11:34:57.583Z,6544.00
2022-10-20T11:35:58.328Z,6080.00
2022-10-20T11:36:57.537Z,5564.00
2022-10-20T11:37:57.528Z,5308.00
2022-10-20T11:38:57.560Z,5440.00
2022-10-20T11:39:57.529Z,5788.00
2022-10-20T11:40:57.491Z,5908.00
2022-10-20T11:41:57.480Z,5804.00
2022-10-20T11:42:57.473Z,5616.00
2022-10-20T11:43:57.481Z,5428.00
2022-10-20T11:44:57.469Z,5040.00
2022-10-20T11:45:57.432Z,4440.00
2022-10-20T11:46:57.428Z,3816.00
2022-10-20T11:47:57.411Z,3352.00
2022-10-20T11:49:00.322Z,3056.00
2022-10-20T11:49:58.410Z,2888.00
2022-10-20T11:50:57.450Z,2812.00
2022-10-20T11:51:57.407Z,2856.00
2022-10-20T11:52:57.362Z,3004.00
2022-10-20T11:53:57.349Z,3208.00
2022-10-20T11:54:57.371Z,3436.00
2022-10-20T11:55:57.322Z,3644.00
2022-10-20T11:56:57.323Z,3820.00
2022-10-20T11:57:59.056Z,3940.00
2022-10-20T11:58:57.294Z,3928.00
2022-10-20T11:59:57.303Z,3816.00
2022-10-20T12:00:59.555Z,3736.00
2022-10-20T12:01:57.483Z,3700.00
2022-10-20T12:02:57.253Z,3680.00
2022-10-20T12:03:57.244Z,3660.00
2022-10-20T12:04:57.257Z,3712.00
2022-10-20T12:05:57.227Z,3772.00
2022-10-20T12:06:57.213Z,3820.00
2022-10-20T12:08:05.775Z,3828.00
2022-10-20T12:08:58.251Z,3748.00
2022-10-20T12:09:57.201Z,3644.00
2022-10-20T12:10:57.165Z,3500.00
2022-10-20T12:11:57.154Z,3296.00
2022-10-20T12:12:57.145Z,3160.00
2022-10-20T12:13:57.124Z,3144.00
2022-10-20T12:14:57.147Z,3152.00
2022-10-20T12:15:57.108Z,3228.00
2022-10-20T12:16:57.098Z,3304.00
2022-10-20T12:17:57.092Z,3264.00
2022-10-20T12:18:57.110Z,3032.00
2022-10-20T12:19:57.087Z,2744.00
2022-10-20T12:20:57.087Z,2628.00
2022-10-20T12:21:57.050Z,2756.00
2022-10-20T12:22:57.037Z,2808.00
2022-10-20T12:23:57.035Z,2636.00
2022-10-20T12:24:57.048Z,2396.00
2022-10-20T12:25:56.999Z,2132.00
2022-10-20T12:26:56.989Z,1820.00
2022-10-20T12:27:57.010Z,1520.00
2022-10-20T12:28:56.968Z,1276.00
2022-10-20T12:29:56.963Z,1164.00
2022-10-20T12:30:56.983Z,1068.00
2022-10-20T12:31:57.064Z,1024.00
2022-10-20T12:32:56.920Z,1044.00
2022-10-20T12:33:56.908Z,1120.00
2022-10-20T12:34:56.898Z,1280.00
2022-10-20T12:35:56.909Z,1500.00
2022-10-20T12:36:56.913Z,1788.00
2022-10-20T12:37:56.872Z,2088.00
2022-10-20T12:38:56.869Z,2356.00